createdAt,value
2023-02-03T00:01:56.414Z,80.34
2023-02-03T00:05:45.858Z,80.51
2023-02-03T00:09:35.027Z,80.27
2023-02-03T00:13:24.210Z,80.42
2023-02-03T00:17:13.266Z,79.67
2023-02-03T00:21:02.355Z,79.59
2023-02-03T00:24:51.153Z,79.87
2023-02-03T00:28:40.117Z,79.29
2023-02-03T00:32:29.914Z,80.04
2023-02-03T00:36:19.241Z,79.91
2023-02-03T00:40:08.259Z,80.03
2023-02-03T00:43:57.616Z,79.87
2023-02-03T00:47:46.648Z,79.53
2023-02-03T00:51:35.885Z,79.61
2023-02-03T00:55:25.038Z,79.56
2023-02-03T00:59:14.188Z,79.59
2023-02-03T01:03:03.266Z,79.35
2023-02-03T01:06:52.411Z,79.28
2023-02-03T01:10:34.297Z,79.20
2023-02-03T01:14:23.877Z,79.21
2023-02-03T01:18:13.121Z,79.28
2023-02-03T01:22:02.295Z,79.44
2023-02-03T01:25:51.880Z,79.55
2023-02-03T01:29:41.054Z,79.80
2023-02-03T01:33:30.327Z,79.98
2023-02-03T01:37:20.888Z,80.26
2023-02-03T01:41:11.266Z,80.47
2023-02-03T01:44:42.319Z,80.56
2023-02-03T02:00:23.276Z,81.36
2023-02-03T02:04:12.360Z,81.55
2023-02-03T02:08:01.557Z,81.62
2023-02-03T02:11:31.430Z,81.86
2023-02-03T02:15:20.929Z,81.80
2023-02-03T02:19:29.571Z,81.98
2023-02-03T02:35:33.133Z,82.99
2023-02-03T02:39:37.744Z,83.08
2023-02-03T02:43:51.978Z,83.14
2023-02-03T02:55:50.769Z,83.44
2023-02-03T02:59:39.949Z,83.58
2023-02-03T03:03:33.410Z,83.65
2023-02-03T03:07:30.533Z,83.74
2023-02-03T03:19:20.834Z,83.79
2023-02-03T03:23:09.879Z,83.77
2023-02-03T03:27:21.087Z,83.75
2023-02-03T03:39:20.212Z,83.73
2023-02-03T03:43:18.461Z,83.79
2023-02-03T03:47:16.833Z,83.78
2023-02-03T03:51:10.916Z,83.66
2023-02-03T04:03:06.926Z,82.65
2023-02-03T04:06:56.468Z,82.53
2023-02-03T04:10:45.762Z,82.42
2023-02-03T04:14:34.958Z,82.27
2023-02-03T04:18:24.069Z,82.15
2023-02-03T04:22:13.133Z,81.93
2023-02-03T04:37:50.704Z,81.31
2023-02-03T04:41:39.746Z,81.24
2023-02-03T04:45:28.752Z,81.09
2023-02-03T04:49:17.794Z,80.94
2023-02-03T04:53:07.148Z,80.75
2023-02-03T04:56:56.312Z,80.68
2023-02-03T05:00:46.377Z,80.65
2023-02-03T05:04:36.175Z,80.66
2023-02-03T05:08:27.842Z,80.64
2023-02-03T05:12:15.807Z,80.52
2023-02-03T05:16:04.025Z,80.43
2023-02-03T05:19:51.993Z,80.48
2023-02-03T05:31:43.931Z,80.78
2023-02-03T05:35:32.865Z,80.49
2023-02-03T05:39:23.335Z,80.03
2023-02-03T05:42:52.286Z,79.07
2023-02-03T05:46:41.369Z,78.49
2023-02-03T05:50:30.459Z,77.82
2023-02-03T05:54:20.310Z,76.21
2023-02-03T05:58:10.308Z,74.97
2023-02-03T06:02:00.224Z,73.13
2023-02-03T06:05:50.917Z,72.71
2023-02-03T06:25:17.944Z,70.49
2023-02-03T06:29:05.785Z,70.49
2023-02-03T06:32:52.282Z,69.54
2023-02-03T06:36:39.823Z,67.64
2023-02-03T06:40:27.831Z,66.26
2023-02-03T06:44:15.704Z,66.28
2023-02-03T06:51:50.794Z,66.08
2023-02-03T07:11:15.311Z,65.98
2023-02-03T07:15:04.550Z,66.06
2023-02-03T07:18:54.059Z,66.80
2023-02-03T07:26:50.314Z,68.34
2023-02-03T07:30:39.375Z,69.20
2023-02-03T07:34:28.680Z,69.83
2023-02-03T07:38:17.724Z,70.32
2023-02-03T07:42:06.812Z,70.45
2023-02-03T07:45:55.718Z,70.57
2023-02-03T07:49:45.074Z,70.81
2023-02-03T07:59:00.274Z,69.56
2023-02-03T08:02:49.741Z,69.25
2023-02-03T08:06:38.740Z,69.59
2023-02-03T08:10:28.076Z,69.47
2023-02-03T08:14:17.553Z,69.61
2023-02-03T08:18:06.967Z,69.06
2023-02-03T08:37:34.529Z,71.94
2023-02-03T08:41:23.817Z,72.71
2023-02-03T08:45:12.817Z,73.57
2023-02-03T08:49:01.920Z,74.00
2023-02-03T08:53:18.384Z,74.70
2023-02-03T08:57:07.384Z,74.87
2023-02-03T09:00:56.153Z,74.87
2023-02-03T09:04:45.254Z,74.71
2023-02-03T09:08:34.480Z,74.85
2023-02-03T09:12:24.380Z,75.00
2023-02-03T09:16:12.453Z,75.11
2023-02-03T09:43:59.687Z,76.92
2023-02-03T09:47:51.643Z,77.38
2023-02-03T09:52:10.235Z,77.93
2023-02-03T09:56:19.799Z,78.63
2023-02-03T10:00:29.924Z,79.09
2023-02-03T10:17:04.967Z,80.91
2023-02-03T10:20:54.415Z,82.44
2023-02-03T10:24:48.304Z,82.66
2023-02-03T10:40:34.608Z,83.93
2023-02-03T10:44:23.644Z,83.78
2023-02-03T10:48:11.292Z,84.15
2023-02-03T10:52:00.513Z,84.73
2023-02-03T10:56:21.108Z,84.74
2023-02-03T11:00:10.216Z,84.88
2023-02-03T11:04:07.318Z,85.13
2023-02-03T11:08:03.124Z,85.05
2023-02-03T11:24:12.617Z,86.88
2023-02-03T11:28:12.733Z,86.91
2023-02-03T11:32:00.127Z,86.96
2023-02-03T11:35:57.331Z,87.28
2023-02-03T11:39:57.539Z,87.48
2023-02-03T11:43:46.917Z,87.57
2023-02-03T11:59:21.857Z,87.38
2023-02-03T12:03:10.642Z,87.52
2023-02-03T12:15:36.909Z,88.31
2023-02-03T12:19:42.584Z,89.03
2023-02-03T12:23:40.815Z,89.25
2023-02-03T12:27:38.751Z,89.32
2023-02-03T12:40:09.069Z,88.44
2023-02-03T12:44:00.276Z,88.72
2023-02-03T12:56:56.273Z,88.99
2023-02-03T13:00:44.769Z,89.28
2023-02-03T13:13:34.186Z,90.10
2023-02-03T13:17:21.959Z,90.04
2023-02-03T13:21:13.971Z,90.25
2023-02-03T13:29:06.119Z,90.47
2023-02-03T13:40:41.795Z,90.15
2023-02-03T13:44:31.461Z,90.46
2023-02-03T13:48:27.300Z,90.61
2023-02-03T13:52:20.456Z,90.81
2023-02-03T14:04:35.283Z,92.09
2023-02-03T14:20:23.461Z,92.28
2023-02-03T14:24:21.318Z,92.35
2023-02-03T14:36:22.789Z,92.64
2023-02-03T14:40:19.682Z,92.67
2023-02-03T14:44:21.781Z,92.71
2023-02-03T14:56:16.454Z,93.23
2023-02-03T15:00:05.562Z,93.22
2023-02-03T15:04:08.681Z,93.43
2023-02-03T15:07:56.298Z,93.59
2023-02-03T15:16:29.867Z,93.61
2023-02-03T15:20:19.146Z,93.54
2023-02-03T15:24:23.409Z,93.43
2023-02-03T15:28:22.390Z,93.31
2023-02-03T15:40:29.417Z,92.87
2023-02-03T15:44:18.609Z,92.80
2023-02-03T15:59:41.529Z,92.30
2023-02-03T16:03:30.572Z,92.27
2023-02-03T16:07:19.836Z,92.14
2023-02-03T16:11:13.625Z,92.13
2023-02-03T16:23:49.439Z,92.44
2023-02-03T16:27:37.342Z,92.61
2023-02-03T16:43:44.574Z,92.90
2023-02-03T16:47:30.628Z,93.12
2023-02-03T16:51:21.049Z,93.13
2023-02-03T16:54:51.495Z,93.07
2023-02-03T16:58:39.091Z,93.05
2023-02-03T17:14:16.697Z,92.77
2023-02-03T17:18:06.650Z,92.73
2023-02-03T17:22:01.943Z,92.73
2023-02-03T17:25:51.800Z,92.81
2023-02-03T17:29:42.764Z,92.79
2023-02-03T17:33:33.543Z,92.83
2023-02-03T17:37:24.451Z,92.80
2023-02-03T18:05:23.458Z,92.38
2023-02-03T18:09:12.495Z,92.30
2023-02-03T18:13:01.805Z,92.23
2023-02-03T18:16:50.944Z,92.18
2023-02-03T18:20:40.365Z,92.15
2023-02-03T18:24:29.330Z,92.13
2023-02-03T18:28:18.452Z,92.12
2023-02-03T18:32:07.484Z,92.01
2023-02-03T18:35:56.641Z,91.89
2023-02-03T18:39:45.793Z,91.78
2023-02-03T18:43:34.932Z,91.68
2023-02-03T18:47:23.703Z,91.53
2023-02-03T19:06:41.394Z,90.01
2023-02-03T19:10:30.925Z,89.98
2023-02-03T19:14:20.664Z,89.99
2023-02-03T19:18:09.675Z,89.92
2023-02-03T19:21:58.895Z,89.87
2023-02-03T19:25:48.195Z,90.01
2023-02-03T19:29:38.185Z,89.96
2023-02-03T19:33:27.766Z,89.96
2023-02-03T19:37:17.737Z,89.97
2023-02-03T19:52:57.350Z,90.91
2023-02-03T19:56:46.505Z,91.21
2023-02-03T20:00:35.794Z,91.41
2023-02-03T20:04:25.372Z,91.64
2023-02-03T20:08:14.582Z,91.74
2023-02-03T20:12:04.220Z,92.04
2023-02-03T20:15:55.802Z,92.30
2023-02-03T20:19:45.142Z,92.25
2023-02-03T20:23:34.150Z,92.61
2023-02-03T20:27:23.495Z,92.77
2023-02-03T20:31:12.918Z,92.84
2023-02-03T20:35:01.961Z,92.99
2023-02-03T20:38:52.124Z,92.95
2023-02-03T20:42:41.495Z,93.11
2023-02-03T20:46:30.835Z,93.22
2023-02-03T20:50:20.167Z,93.20
2023-02-03T20:54:09.127Z,93.17
2023-02-03T20:57:58.238Z,93.28
2023-02-03T21:01:52.658Z,93.34
2023-02-03T21:17:31.199Z,93.65
2023-02-03T21:21:20.221Z,93.72
2023-02-03T21:25:21.504Z,93.70
2023-02-03T21:29:11.948Z,93.70
2023-02-03T21:45:14.274Z,94.38
2023-02-03T21:49:07.436Z,94.53
2023-02-03T21:52:54.972Z,94.56
2023-02-03T21:56:42.644Z,94.59
2023-02-03T22:12:20.835Z,94.64
2023-02-03T22:16:08.824Z,94.57
2023-02-03T22:19:58.007Z,94.37
2023-02-03T22:23:47.002Z,94.12
2023-02-03T22:27:35.942Z,93.95
2023-02-03T22:31:25.073Z,93.85
2023-02-03T22:35:14.127Z,93.86
2023-02-03T22:39:03.553Z,93.91
2023-02-03T22:42:52.527Z,93.94
2023-02-03T22:46:41.664Z,93.99
2023-02-03T22:50:34.658Z,94.05
2023-02-03T22:54:24.467Z,94.11
2023-02-03T22:58:13.537Z,94.12
2023-02-03T23:02:03.035Z,94.14
2023-02-03T23:05:53.843Z,94.17
2023-02-03T23:09:43.497Z,94.18
2023-02-03T23:13:32.559Z,94.17
2023-02-03T23:17:20.746Z,94.18
2023-02-03T23:21:09.987Z,94.25
2023-02-03T23:40:45.276Z,94.49
2023-02-03T23:44:32.854Z,94.49
2023-02-03T23:48:11.102Z,94.48
2023-02-03T23:51:59.816Z,94.45
2023-02-03T23:55:48.696Z,94.40
2023-02-03T23:59:35.740Z,94.39
